Skip Navigation Links Skip Navigation Links

Current Weather

Easton/Newnam Field, Easton, Md.

For information only: do not use for flight planning or navigation.
Latest weather
Observation time Sunday, August 1, 2021 5:15 AM EDT
Local time Sunday, August 1, 2021 6:07 AM EDT
Flight conditions Visual Meteorological Conditions
Winds
Wind direction Southeast (130°)
Wind speed 5 mph
Visibility 10 mi.
Sky condition
Ceiling 4,000 ft. broken clouds
Cloud layer broken clouds 4,000 ft.
Cloud layer broken clouds 4,800 ft.
Cloud layer broken clouds 5,500 ft.
Temperature 69°F
Dewpoint 68°F
Altimeter 29.94 in.Hg
Derived measurements
Relative humidity 96%
Density altitude 1022 ft.
Remarks
Fully automated report.
Automated weather observing station with precipitation discriminator.
METAR KESN 010915Z AUTO 13004KT 10SM BKN040 BKN048 BKN055 21/20 A2994 RMK AO2 T02060200

Settings

Location code

InnerDrive.Weather 4.0.6770.0 Release CLR 4.0.30319.42000
Copyright ©2018 Inner Drive Technology. All rights reserved. Portions Copyright ©1986-2018 David Braverman.

Find weather

Site navigation


Skip Navigation Links

Place info

Page info

PayPal - The safer, easier way to pay online!

Return home.

Copyright ©2021 Inner Drive Technology. Purveyors of fine, hand-crafted computer software. Page printed 2021-08-01T10:07:54 UTC.